createdAt,value
2017-09-06T00:02:03.923Z,19.82
2017-09-06T00:04:32.271Z,19.81
2017-09-06T00:07:00.593Z,19.79
2017-09-06T00:09:28.911Z,19.83
2017-09-06T00:11:57.256Z,19.81
2017-09-06T00:14:25.577Z,19.79
2017-09-06T00:16:53.891Z,19.78
2017-09-06T00:19:22.236Z,19.64
2017-09-06T00:21:50.560Z,19.40
2017-09-06T00:24:19.758Z,19.30
2017-09-06T00:26:48.108Z,19.32
2017-09-06T00:29:16.430Z,19.21
2017-09-06T00:31:44.754Z,19.37
2017-09-06T00:34:13.102Z,19.39
2017-09-06T00:36:41.419Z,19.43
2017-09-06T00:39:09.749Z,19.48
2017-09-06T00:41:38.141Z,19.51
2017-09-06T00:44:06.459Z,19.58
2017-09-06T00:46:34.774Z,19.63
2017-09-06T00:49:03.122Z,19.71
2017-09-06T00:51:31.443Z,19.61
2017-09-06T00:53:59.758Z,19.62
2017-09-06T00:56:28.105Z,19.64
2017-09-06T00:58:56.474Z,19.69
2017-09-06T01:01:24.790Z,19.71
2017-09-06T01:03:53.135Z,19.73
2017-09-06T01:06:21.463Z,19.73
2017-09-06T01:08:49.782Z,19.71
2017-09-06T01:11:18.131Z,19.63
2017-09-06T01:13:46.451Z,19.77
2017-09-06T01:16:14.773Z,19.82
2017-09-06T01:18:43.123Z,19.85
2017-09-06T01:21:11.442Z,19.90
2017-09-06T01:23:39.766Z,19.90
2017-09-06T01:26:08.098Z,19.89
2017-09-06T01:28:36.418Z,19.81
2017-09-06T01:31:04.734Z,19.85
2017-09-06T01:33:33.087Z,19.83
2017-09-06T01:36:01.428Z,19.86
2017-09-06T01:38:29.749Z,19.85
2017-09-06T01:40:58.086Z,19.86
2017-09-06T01:43:26.402Z,19.86
2017-09-06T01:45:54.719Z,19.83
2017-09-06T01:48:23.062Z,19.87
2017-09-06T01:50:51.379Z,19.87
2017-09-06T01:53:19.694Z,19.86
2017-09-06T01:55:48.038Z,19.70
2017-09-06T01:58:16.358Z,19.68
2017-09-06T02:00:44.682Z,19.69
2017-09-06T02:03:13.022Z,19.76
2017-09-06T02:05:41.351Z,19.76
2017-09-06T02:08:09.669Z,19.79
2017-09-06T02:10:38.011Z,19.82
2017-09-06T02:13:06.342Z,19.86
2017-09-06T02:15:34.663Z,19.87
2017-09-06T02:18:03.012Z,19.80
2017-09-06T02:20:31.334Z,19.86
2017-09-06T02:22:59.659Z,19.92
2017-09-06T02:25:28.011Z,19.98
2017-09-06T02:27:56.340Z,19.98
2017-09-06T02:30:24.664Z,20.02
2017-09-06T02:32:53.020Z,19.99
2017-09-06T02:35:21.343Z,20.00
2017-09-06T02:37:49.680Z,20.00
2017-09-06T02:40:18.028Z,19.97
2017-09-06T02:42:46.355Z,19.94
2017-09-06T02:45:14.683Z,19.97
2017-09-06T02:47:43.028Z,20.01
2017-09-06T02:50:11.346Z,19.97
2017-09-06T02:52:39.668Z,19.99
2017-09-06T02:55:08.041Z,19.99
2017-09-06T02:57:36.394Z,19.84
2017-09-06T03:00:04.715Z,19.59
2017-09-06T03:02:33.063Z,19.84
2017-09-06T03:05:01.378Z,19.91
2017-09-06T03:07:29.693Z,19.87
2017-09-06T03:09:58.041Z,19.96
2017-09-06T03:12:26.352Z,19.98
2017-09-06T03:14:54.670Z,19.89
2017-09-06T03:17:23.017Z,19.56
2017-09-06T03:19:51.337Z,19.65
2017-09-06T03:22:19.658Z,19.47
2017-09-06T03:24:48.306Z,19.22
2017-09-06T03:27:16.622Z,19.16
2017-09-06T03:29:44.937Z,19.14
2017-09-06T03:32:13.280Z,19.01
2017-09-06T03:34:41.597Z,18.93
2017-09-06T03:37:09.916Z,18.98
2017-09-06T03:39:38.278Z,19.10
2017-09-06T03:42:06.598Z,19.06
2017-09-06T03:44:34.927Z,19.15
2017-09-06T03:47:03.273Z,18.86
2017-09-06T03:49:31.600Z,18.89
2017-09-06T03:51:59.920Z,18.81
2017-09-06T03:54:28.258Z,18.85
2017-09-06T03:56:56.579Z,18.94
2017-09-06T03:59:24.928Z,19.02
2017-09-06T04:01:53.279Z,18.98
2017-09-06T04:04:21.595Z,18.94
2017-09-06T04:06:49.911Z,18.87
2017-09-06T04:09:18.261Z,18.67
2017-09-06T04:11:47.270Z,18.47
2017-09-06T04:14:15.583Z,18.50
2017-09-06T04:16:43.934Z,18.72
2017-09-06T04:19:12.253Z,18.70
2017-09-06T04:21:40.584Z,18.63
2017-09-06T04:24:08.935Z,18.61
2017-09-06T04:26:37.260Z,18.30
2017-09-06T04:29:05.582Z,18.31
2017-09-06T04:31:33.929Z,18.47
2017-09-06T04:34:02.252Z,18.62
2017-09-06T04:36:30.572Z,18.68
2017-09-06T04:38:58.914Z,18.81
2017-09-06T04:41:27.227Z,18.77
2017-09-06T04:43:55.575Z,18.66
2017-09-06T04:46:23.918Z,18.62
2017-09-06T04:48:52.235Z,18.66
2017-09-06T04:51:20.565Z,18.81
2017-09-06T04:53:48.914Z,18.77
2017-09-06T04:56:17.235Z,18.86
2017-09-06T04:58:45.551Z,18.92
2017-09-06T05:01:13.898Z,18.95
2017-09-06T05:03:42.212Z,18.97
2017-09-06T05:06:10.526Z,18.88
2017-09-06T05:08:38.871Z,18.89
2017-09-06T05:11:07.187Z,18.94
2017-09-06T05:13:35.503Z,18.93
2017-09-06T05:16:03.855Z,18.97
2017-09-06T05:18:32.175Z,18.93
2017-09-06T05:21:00.490Z,18.93
2017-09-06T05:23:28.857Z,18.95
2017-09-06T05:25:57.204Z,18.78
2017-09-06T05:28:25.531Z,18.62
2017-09-06T05:30:53.890Z,18.71
2017-09-06T05:33:22.206Z,18.67
2017-09-06T05:35:50.531Z,18.69
2017-09-06T05:38:18.876Z,18.70
2017-09-06T05:40:47.205Z,18.41
2017-09-06T05:43:15.525Z,18.26
2017-09-06T05:45:43.880Z,18.29
2017-09-06T05:48:12.215Z,18.46
2017-09-06T05:50:40.534Z,18.50
2017-09-06T05:53:08.877Z,18.28
2017-09-06T05:55:37.190Z,18.20
2017-09-06T05:58:05.512Z,17.79
2017-09-06T06:00:33.846Z,18.09
2017-09-06T06:03:02.162Z,18.38
2017-09-06T06:05:30.474Z,18.58
2017-09-06T06:07:58.827Z,18.66
2017-09-06T06:10:27.150Z,18.88
2017-09-06T06:12:55.466Z,19.05
2017-09-06T06:15:23.825Z,19.16
2017-09-06T06:17:52.146Z,19.33
2017-09-06T06:20:20.606Z,19.41
2017-09-06T06:22:48.955Z,19.50
2017-09-06T06:25:17.274Z,19.38
2017-09-06T06:27:45.592Z,19.19
2017-09-06T06:30:13.934Z,19.13
2017-09-06T06:32:42.254Z,18.93
2017-09-06T06:35:10.580Z,19.13
2017-09-06T06:37:38.927Z,19.15
2017-09-06T06:40:07.250Z,19.03
2017-09-06T06:42:35.579Z,18.88
2017-09-06T06:45:03.927Z,19.02
2017-09-06T06:47:32.267Z,19.05
2017-09-06T06:50:00.590Z,18.88
2017-09-06T06:52:28.946Z,18.99
2017-09-06T06:54:57.269Z,18.87
2017-09-06T06:57:25.598Z,18.94
2017-09-06T06:59:53.938Z,18.95
2017-09-06T07:02:22.803Z,18.91
2017-09-06T07:04:51.119Z,18.98
2017-09-06T07:07:19.474Z,18.82
2017-09-06T07:09:47.800Z,18.70
2017-09-06T07:12:16.130Z,18.73
2017-09-06T07:14:44.480Z,18.77
2017-09-06T07:17:12.802Z,18.65
2017-09-06T07:19:41.126Z,18.85
2017-09-06T07:22:09.478Z,18.85
2017-09-06T07:24:37.794Z,18.88
2017-09-06T07:27:06.111Z,18.95
2017-09-06T07:29:34.452Z,19.01
2017-09-06T07:32:02.779Z,18.97
2017-09-06T07:34:31.098Z,18.91
2017-09-06T07:36:59.449Z,18.61
2017-09-06T07:39:27.774Z,18.63
2017-09-06T07:41:56.098Z,18.58
2017-09-06T07:44:24.447Z,18.47
2017-09-06T07:46:52.770Z,18.59
2017-09-06T07:49:21.091Z,18.63
2017-09-06T07:51:49.443Z,18.63
2017-09-06T07:54:17.782Z,18.62
2017-09-06T07:56:46.102Z,18.69
2017-09-06T07:59:14.459Z,18.80
2017-09-06T08:01:42.795Z,19.02
2017-09-06T08:04:11.118Z,19.10
2017-09-06T08:06:39.474Z,18.99
2017-09-06T08:09:07.807Z,19.06
2017-09-06T08:11:36.123Z,19.13
2017-09-06T08:14:04.464Z,18.84
2017-09-06T08:16:32.782Z,18.94
2017-09-06T08:19:01.102Z,18.91
2017-09-06T08:21:29.467Z,19.00
2017-09-06T08:23:57.794Z,19.06
2017-09-06T08:26:26.111Z,18.92
2017-09-06T08:28:54.456Z,19.31
2017-09-06T08:31:22.778Z,19.41
2017-09-06T08:33:51.111Z,19.31
2017-09-06T08:36:19.461Z,19.54
2017-09-06T08:38:47.778Z,19.73
2017-09-06T08:41:16.095Z,19.67
2017-09-06T08:43:44.445Z,19.55
2017-09-06T08:46:12.789Z,19.56
2017-09-06T08:48:41.111Z,19.52
2017-09-06T08:51:09.465Z,19.32
2017-09-06T08:53:37.788Z,19.35
2017-09-06T08:56:06.121Z,19.47
2017-09-06T08:58:34.494Z,19.29
2017-09-06T09:01:02.855Z,19.16
2017-09-06T09:03:31.175Z,19.07
2017-09-06T09:05:59.511Z,19.13
2017-09-06T09:08:27.834Z,19.11
2017-09-06T09:10:56.149Z,19.00
2017-09-06T09:13:24.491Z,19.32
2017-09-06T09:15:52.815Z,19.29
2017-09-06T09:18:21.130Z,19.46
2017-09-06T09:20:49.475Z,19.65
2017-09-06T09:23:17.803Z,19.77
2017-09-06T09:25:46.119Z,19.86
2017-09-06T09:28:14.472Z,19.87
2017-09-06T09:30:42.794Z,19.90
2017-09-06T09:33:11.120Z,20.04
2017-09-06T09:35:39.459Z,20.28
2017-09-06T09:38:07.794Z,20.22
2017-09-06T09:40:36.111Z,20.01
2017-09-06T09:43:04.463Z,19.77
2017-09-06T09:45:32.786Z,19.92
2017-09-06T09:48:01.102Z,19.62
2017-09-06T09:50:29.446Z,19.29
2017-09-06T09:52:57.764Z,18.97
2017-09-06T09:55:26.083Z,18.57
2017-09-06T09:57:54.451Z,18.31
2017-09-06T10:00:22.795Z,18.14
2017-09-06T10:02:51.107Z,17.90
2017-09-06T10:05:19.459Z,17.68
2017-09-06T10:07:47.775Z,17.58
2017-09-06T10:10:16.100Z,17.44
2017-09-06T10:12:44.438Z,17.75
2017-09-06T10:15:12.755Z,18.03
2017-09-06T10:17:41.083Z,18.27
2017-09-06T10:20:09.438Z,18.17
2017-09-06T10:22:37.772Z,18.72
2017-09-06T10:25:06.099Z,19.12
2017-09-06T10:27:34.441Z,19.21
2017-09-06T10:30:02.755Z,18.88
2017-09-06T10:32:31.080Z,18.56
2017-09-06T10:34:59.450Z,18.30
2017-09-06T10:37:27.797Z,18.13
2017-09-06T10:39:56.115Z,18.33
2017-09-06T10:42:24.466Z,18.62
2017-09-06T10:44:52.788Z,18.40
2017-09-06T10:47:21.111Z,18.27
2017-09-06T10:49:49.464Z,18.68
2017-09-06T10:52:17.792Z,18.42
2017-09-06T10:54:46.106Z,18.70
2017-09-06T10:57:15.272Z,18.03
2017-09-06T10:59:43.586Z,18.28
2017-09-06T11:02:11.922Z,18.45
2017-09-06T11:04:40.263Z,17.77
2017-09-06T11:07:08.584Z,18.09
2017-09-06T11:09:36.907Z,18.58
2017-09-06T11:12:05.261Z,18.04
2017-09-06T11:14:33.581Z,18.07
2017-09-06T11:17:01.906Z,17.95
2017-09-06T11:19:30.246Z,17.76
2017-09-06T11:21:58.580Z,17.76
2017-09-06T11:24:26.899Z,17.36
2017-09-06T11:26:55.247Z,17.94
2017-09-06T11:29:23.576Z,18.00
2017-09-06T11:31:51.899Z,17.83
2017-09-06T11:34:20.247Z,18.13
2017-09-06T11:36:48.564Z,18.72
2017-09-06T11:39:16.884Z,18.47
2017-09-06T11:41:45.230Z,18.52
2017-09-06T11:44:13.564Z,18.36
2017-09-06T11:46:41.886Z,18.17
2017-09-06T11:49:10.235Z,18.48
2017-09-06T11:51:38.559Z,18.55
2017-09-06T11:54:06.875Z,19.15
2017-09-06T11:56:35.219Z,19.21
2017-09-06T11:59:03.543Z,18.84
2017-09-06T12:01:31.868Z,18.99
2017-09-06T12:04:00.210Z,19.27
2017-09-06T12:06:28.531Z,19.13
2017-09-06T12:08:56.852Z,19.33
2017-09-06T12:11:25.213Z,18.99
2017-09-06T12:13:53.530Z,18.88
2017-09-06T12:16:21.861Z,18.61
2017-09-06T12:18:50.210Z,18.19
2017-09-06T12:21:18.530Z,18.44
2017-09-06T12:23:46.852Z,19.03
2017-09-06T12:26:15.191Z,19.20
2017-09-06T12:28:43.513Z,18.50
2017-09-06T12:31:11.830Z,18.77
2017-09-06T12:33:40.179Z,19.43
2017-09-06T12:36:08.499Z,19.39
2017-09-06T12:38:36.827Z,19.98
2017-09-06T12:41:05.187Z,19.63
2017-09-06T12:43:33.510Z,19.41
2017-09-06T12:46:01.833Z,19.39
2017-09-06T12:48:30.178Z,19.47
2017-09-06T12:50:58.494Z,18.75
2017-09-06T12:53:26.807Z,18.27
2017-09-06T12:55:55.150Z,18.41
2017-09-06T12:58:23.470Z,17.91
2017-09-06T13:00:51.798Z,17.74
2017-09-06T13:03:20.142Z,17.69
2017-09-06T13:05:48.467Z,18.06
2017-09-06T13:08:16.790Z,18.35
2017-09-06T13:10:45.427Z,18.54
2017-09-06T13:13:13.758Z,18.23
2017-09-06T13:15:42.098Z,17.92
2017-09-06T13:18:11.221Z,18.05
2017-09-06T13:20:39.543Z,17.68
2017-09-06T13:23:07.884Z,17.77
2017-09-06T13:25:36.233Z,17.45
2017-09-06T13:28:04.544Z,17.28
2017-09-06T13:30:32.869Z,17.65
2017-09-06T13:33:01.214Z,17.75
2017-09-06T13:35:29.530Z,17.83
2017-09-06T13:37:57.858Z,17.72
2017-09-06T13:40:26.198Z,17.48
2017-09-06T13:42:54.528Z,18.06
2017-09-06T13:45:22.847Z,18.94
2017-09-06T13:47:51.195Z,20.25
2017-09-06T13:50:19.511Z,21.45
2017-09-06T13:52:47.830Z,22.40
2017-09-06T13:55:16.174Z,22.67
2017-09-06T13:57:44.503Z,24.15
2017-09-06T14:00:12.825Z,23.07
2017-09-06T14:02:41.174Z,22.12
2017-09-06T14:05:09.495Z,21.64
2017-09-06T14:07:37.826Z,20.44
2017-09-06T14:10:06.171Z,20.33
2017-09-06T14:12:34.487Z,21.71
2017-09-06T14:15:02.824Z,23.47
2017-09-06T14:17:31.166Z,23.75
2017-09-06T14:19:59.484Z,22.65
2017-09-06T14:22:27.811Z,23.59
2017-09-06T14:24:56.174Z,23.27
2017-09-06T14:27:24.491Z,24.31
2017-09-06T14:29:52.814Z,24.87
2017-09-06T14:32:21.160Z,25.01
2017-09-06T14:34:49.470Z,24.19
2017-09-06T14:37:17.786Z,24.26
2017-09-06T14:39:46.123Z,23.53
2017-09-06T14:42:14.436Z,23.86
2017-09-06T14:44:42.750Z,24.51
2017-09-06T14:47:11.091Z,25.01
2017-09-06T14:49:39.403Z,24.48
2017-09-06T14:52:07.715Z,23.58
2017-09-06T14:54:36.059Z,22.99
2017-09-06T14:57:04.374Z,23.16
2017-09-06T14:59:32.696Z,22.71
2017-09-06T15:02:01.042Z,21.39
2017-09-06T15:04:29.356Z,22.72
2017-09-06T15:06:57.676Z,21.84
2017-09-06T15:09:26.056Z,22.99
2017-09-06T15:11:54.384Z,23.06
2017-09-06T15:14:22.700Z,22.72
2017-09-06T15:16:51.049Z,22.57
2017-09-06T15:19:19.365Z,21.92
2017-09-06T15:21:47.684Z,21.39
2017-09-06T15:24:16.039Z,21.03
2017-09-06T15:26:44.370Z,22.29
2017-09-06T15:29:12.687Z,22.02
2017-09-06T15:31:41.030Z,21.76
2017-09-06T15:34:09.348Z,21.01
2017-09-06T15:36:37.684Z,20.84
2017-09-06T15:39:06.029Z,21.06
2017-09-06T15:41:34.350Z,20.65
2017-09-06T15:44:02.662Z,19.62
2017-09-06T15:46:31.011Z,18.86
2017-09-06T15:48:59.330Z,18.94
2017-09-06T15:51:27.644Z,19.93
2017-09-06T15:53:56.021Z,20.91
2017-09-06T15:56:24.335Z,21.40
2017-09-06T15:58:52.658Z,22.10
2017-09-06T16:01:21.002Z,22.23
2017-09-06T16:03:49.331Z,23.02
2017-09-06T16:06:17.646Z,23.06
2017-09-06T16:08:46.006Z,23.51
2017-09-06T16:11:14.323Z,22.18
2017-09-06T16:13:42.674Z,22.40
2017-09-06T16:16:11.021Z,22.28
2017-09-06T16:18:39.350Z,22.03
2017-09-06T16:21:07.697Z,21.30
2017-09-06T16:23:36.041Z,21.56
2017-09-06T16:26:04.358Z,20.97
2017-09-06T16:28:32.679Z,20.98
2017-09-06T16:31:01.036Z,19.74
2017-09-06T16:33:29.349Z,18.61
2017-09-06T16:35:57.664Z,17.62
2017-09-06T16:38:26.015Z,17.80
2017-09-06T16:40:54.340Z,17.30
2017-09-06T16:43:22.655Z,17.58
2017-09-06T16:45:51.003Z,17.66
2017-09-06T16:48:19.347Z,17.07
2017-09-06T16:50:47.663Z,17.43
2017-09-06T16:53:16.020Z,17.33
2017-09-06T16:55:44.349Z,18.14
2017-09-06T16:58:12.670Z,18.78
2017-09-06T17:00:41.015Z,19.19
2017-09-06T17:03:09.342Z,18.39
2017-09-06T17:05:37.663Z,18.08
2017-09-06T17:08:06.024Z,17.80
2017-09-06T17:10:34.351Z,17.54
2017-09-06T17:13:02.682Z,17.17
2017-09-06T17:15:31.023Z,17.18
2017-09-06T17:17:59.346Z,16.79
2017-09-06T17:20:27.839Z,16.97
2017-09-06T17:22:56.187Z,16.61
2017-09-06T17:25:24.515Z,16.83
2017-09-06T17:27:54.989Z,16.83
2017-09-06T17:30:23.566Z,16.93
2017-09-06T17:32:51.884Z,16.66
2017-09-06T17:35:20.214Z,16.56
2017-09-06T17:37:48.567Z,16.45
2017-09-06T17:40:16.892Z,16.65
2017-09-06T17:42:45.216Z,16.39
2017-09-06T17:45:13.566Z,16.64
2017-09-06T17:47:41.883Z,16.88
2017-09-06T17:50:10.198Z,16.88
2017-09-06T17:52:38.563Z,16.89
2017-09-06T17:55:06.909Z,16.88
2017-09-06T17:57:35.235Z,16.90
2017-09-06T18:00:03.578Z,16.55
2017-09-06T18:02:31.896Z,16.36
2017-09-06T18:05:01.162Z,16.47
2017-09-06T18:07:29.759Z,16.18
2017-09-06T18:09:58.103Z,15.83
2017-09-06T18:12:26.423Z,15.82
2017-09-06T18:14:54.819Z,15.83
2017-09-06T18:17:23.142Z,15.33
2017-09-06T18:19:51.466Z,15.64
2017-09-06T18:22:19.806Z,15.62
2017-09-06T18:24:48.146Z,15.65
2017-09-06T18:27:16.461Z,15.45
2017-09-06T18:29:44.807Z,15.09
2017-09-06T18:32:13.147Z,14.74
2017-09-06T18:34:41.511Z,14.77
2017-09-06T18:37:09.851Z,14.70
2017-09-06T18:39:38.191Z,14.94
2017-09-06T18:42:06.507Z,14.88
2017-09-06T18:44:34.863Z,14.75
2017-09-06T18:47:03.186Z,14.95
2017-09-06T18:49:31.551Z,14.89
2017-09-06T18:51:59.871Z,14.81
2017-09-06T18:54:28.220Z,14.95
2017-09-06T18:56:56.564Z,14.95
2017-09-06T18:59:24.938Z,14.87
2017-09-06T19:01:53.293Z,14.84
2017-09-06T19:04:22.011Z,14.60
2017-09-06T19:06:50.330Z,14.57
2017-09-06T19:09:18.689Z,14.44
2017-09-06T19:11:47.030Z,14.48
2017-09-06T19:14:15.352Z,14.28
2017-09-06T19:16:43.709Z,14.21
2017-09-06T19:19:12.042Z,14.41
2017-09-06T19:21:40.370Z,14.48
2017-09-06T19:24:08.715Z,14.56
2017-09-06T19:26:37.116Z,14.43
2017-09-06T19:29:05.431Z,14.58
2017-09-06T19:31:33.778Z,14.47
2017-09-06T19:34:02.110Z,14.71
2017-09-06T19:36:30.438Z,14.63
2017-09-06T19:38:58.799Z,14.83
2017-09-06T19:41:27.124Z,14.69
2017-09-06T19:43:55.456Z,14.56
2017-09-06T19:46:23.810Z,14.67
2017-09-06T19:48:52.138Z,14.75
2017-09-06T19:51:20.463Z,14.58
2017-09-06T19:53:48.807Z,14.84
2017-09-06T19:56:17.140Z,14.89
2017-09-06T19:58:45.491Z,14.84
2017-09-06T20:01:13.815Z,14.36
2017-09-06T20:03:42.237Z,14.66
2017-09-06T20:06:10.586Z,14.79
2017-09-06T20:08:38.912Z,15.01
2017-09-06T20:11:07.235Z,15.06
2017-09-06T20:13:35.591Z,15.10
2017-09-06T20:16:03.928Z,14.90
2017-09-06T20:18:32.250Z,14.96
2017-09-06T20:21:00.605Z,14.89
2017-09-06T20:23:30.290Z,14.86
2017-09-06T20:25:58.610Z,14.84
2017-09-06T20:28:26.964Z,14.77
2017-09-06T20:30:55.289Z,14.69
2017-09-06T20:33:23.915Z,14.61
2017-09-06T20:35:52.263Z,14.48
2017-09-06T20:38:20.583Z,14.28
2017-09-06T20:40:48.898Z,14.34
2017-09-06T20:43:17.238Z,14.37
2017-09-06T20:45:45.579Z,14.33
2017-09-06T20:48:13.899Z,14.27
2017-09-06T20:50:42.248Z,14.32
2017-09-06T20:53:10.574Z,14.24
2017-09-06T20:55:38.890Z,14.17
2017-09-06T20:58:07.333Z,13.98
2017-09-06T21:00:35.662Z,13.82
2017-09-06T21:03:03.978Z,13.77
2017-09-06T21:05:32.407Z,13.64
2017-09-06T21:08:00.751Z,13.60
2017-09-06T21:10:29.087Z,13.62
2017-09-06T21:12:57.463Z,13.66
2017-09-06T21:15:25.806Z,13.67
2017-09-06T21:17:54.130Z,13.64
2017-09-06T21:20:22.471Z,13.61
2017-09-06T21:22:50.800Z,13.59
2017-09-06T21:25:19.135Z,13.48
2017-09-06T21:27:47.485Z,13.52
2017-09-06T21:30:15.801Z,13.54
2017-09-06T21:32:44.123Z,13.62
2017-09-06T21:35:12.510Z,13.65
2017-09-06T21:37:40.822Z,13.75
2017-09-06T21:40:09.142Z,13.57
2017-09-06T21:42:37.494Z,13.63
2017-09-06T21:45:05.816Z,13.50
2017-09-06T21:47:34.139Z,13.53
2017-09-06T21:50:02.519Z,13.51
2017-09-06T21:52:30.838Z,13.23
2017-09-06T21:54:59.158Z,13.35
2017-09-06T21:57:27.502Z,13.04
2017-09-06T21:59:55.821Z,13.18
2017-09-06T22:02:24.151Z,13.28
2017-09-06T22:04:52.498Z,13.24
2017-09-06T22:07:20.819Z,13.28
2017-09-06T22:09:49.138Z,13.44
2017-09-06T22:12:17.505Z,13.62
2017-09-06T22:14:45.826Z,13.65
2017-09-06T22:17:14.150Z,13.68
2017-09-06T22:19:42.491Z,13.71
2017-09-06T22:22:10.810Z,13.78
2017-09-06T22:24:39.132Z,13.82
2017-09-06T22:27:07.470Z,13.86
2017-09-06T22:29:35.798Z,13.87
2017-09-06T22:32:04.118Z,13.89
2017-09-06T22:34:32.480Z,13.80
2017-09-06T22:37:00.803Z,13.87
2017-09-06T22:39:29.120Z,13.91
2017-09-06T22:41:57.470Z,13.92
2017-09-06T22:44:25.794Z,13.82
2017-09-06T22:46:54.123Z,13.79
2017-09-06T22:49:22.476Z,13.69
2017-09-06T22:51:50.791Z,13.76
2017-09-06T22:54:19.107Z,13.84
2017-09-06T22:56:47.458Z,13.89
2017-09-06T22:59:15.779Z,13.84
2017-09-06T23:01:44.106Z,13.80
2017-09-06T23:04:12.463Z,13.85
2017-09-06T23:06:40.779Z,13.97
2017-09-06T23:09:09.094Z,13.88
2017-09-06T23:11:37.439Z,14.02
2017-09-06T23:14:05.754Z,14.03
2017-09-06T23:16:34.074Z,14.10
2017-09-06T23:19:02.421Z,13.92
2017-09-06T23:21:30.744Z,14.12
2017-09-06T23:23:59.063Z,14.15
2017-09-06T23:26:27.403Z,14.23
2017-09-06T23:28:55.731Z,14.15
2017-09-06T23:31:24.046Z,14.17
2017-09-06T23:33:52.401Z,14.17
2017-09-06T23:36:20.717Z,14.10
2017-09-06T23:38:49.038Z,13.76
2017-09-06T23:41:17.393Z,13.79
2017-09-06T23:43:45.709Z,13.62
2017-09-06T23:46:14.044Z,13.66
2017-09-06T23:48:42.395Z,13.54
2017-09-06T23:51:10.715Z,13.67
2017-09-06T23:53:39.034Z,13.68
2017-09-06T23:56:07.387Z,13.58
2017-09-06T23:58:35.719Z,13.58
